sensor_id;sensor_type;location;lat;lon;timestamp;P1;durP1;ratioP1;P2;durP2;ratioP2
10880;SDS011;5493;48.884;8.338;2024-03-25T00:00:16;1.70;;;0.90;;
10880;SDS011;5493;48.884;8.338;2024-03-25T00:02:44;2.80;;;1.70;;
10880;SDS011;5493;48.884;8.338;2024-03-25T00:05:10;2.27;;;1.20;;
10880;SDS011;5493;48.884;8.338;2024-03-25T00:07:36;2.80;;;1.50;;
10880;SDS011;5493;48.884;8.338;2024-03-25T00:10:02;2.63;;;1.30;;
10880;SDS011;5493;48.884;8.338;2024-03-25T00:12:29;3.77;;;1.27;;
10880;SDS011;5493;48.884;8.338;2024-03-25T00:14:54;0.93;;;0.60;;
10880;SDS011;5493;48.884;8.338;2024-03-25T00:17:21;2.40;;;1.20;;
10880;SDS011;5493;48.884;8.338;2024-03-25T00:19:48;2.93;;;1.40;;
10880;SDS011;5493;48.884;8.338;2024-03-25T00:22:16;3.17;;;1.50;;
10880;SDS011;5493;48.884;8.338;2024-03-25T00:24:42;2.13;;;1.17;;
10880;SDS011;5493;48.884;8.338;2024-03-25T00:27:08;2.37;;;1.37;;
10880;SDS011;5493;48.884;8.338;2024-03-25T00:29:34;2.07;;;0.93;;
10880;SDS011;5493;48.884;8.338;2024-03-25T00:32:00;2.03;;;0.97;;
10880;SDS011;5493;48.884;8.338;2024-03-25T00:34:26;2.53;;;1.20;;
10880;SDS011;5493;48.884;8.338;2024-03-25T00:36:54;1.73;;;1.40;;
10880;SDS011;5493;48.884;8.338;2024-03-25T00:39:19;1.70;;;1.00;;
10880;SDS011;5493;48.884;8.338;2024-03-25T00:41:46;2.77;;;1.20;;
10880;SDS011;5493;48.884;8.338;2024-03-25T00:44:12;2.60;;;0.73;;
10880;SDS011;5493;48.884;8.338;2024-03-25T00:46:39;3.37;;;1.60;;
10880;SDS011;5493;48.884;8.338;2024-03-25T00:49:06;3.20;;;1.10;;
10880;SDS011;5493;48.884;8.338;2024-03-25T00:51:33;4.40;;;1.20;;
10880;SDS011;5493;48.884;8.338;2024-03-25T00:54:00;2.40;;;1.27;;
10880;SDS011;5493;48.884;8.338;2024-03-25T00:56:27;1.47;;;1.20;;
10880;SDS011;5493;48.884;8.338;2024-03-25T00:58:52;2.23;;;1.17;;
10880;SDS011;5493;48.884;8.338;2024-03-25T01:01:19;2.50;;;1.33;;
10880;SDS011;5493;48.884;8.338;2024-03-25T01:03:45;2.23;;;1.37;;
10880;SDS011;5493;48.884;8.338;2024-03-25T01:06:11;2.37;;;1.30;;
10880;SDS011;5493;48.884;8.338;2024-03-25T01:08:37;1.73;;;1.07;;
10880;SDS011;5493;48.884;8.338;2024-03-25T01:11:05;2.47;;;0.97;;
10880;SDS011;5493;48.884;8.338;2024-03-25T01:13:31;2.53;;;0.83;;
10880;SDS011;5493;48.884;8.338;2024-03-25T01:15:57;4.10;;;1.33;;
10880;SDS011;5493;48.884;8.338;2024-03-25T01:18:23;1.80;;;1.00;;
10880;SDS011;5493;48.884;8.338;2024-03-25T01:20:49;1.40;;;1.00;;
10880;SDS011;5493;48.884;8.338;2024-03-25T01:23:15;2.40;;;1.30;;
10880;SDS011;5493;48.884;8.338;2024-03-25T01:25:41;2.10;;;0.80;;
10880;SDS011;5493;48.884;8.338;2024-03-25T01:28:08;3.87;;;1.40;;
10880;SDS011;5493;48.884;8.338;2024-03-25T01:30:35;1.53;;;1.00;;
10880;SDS011;5493;48.884;8.338;2024-03-25T01:33:00;1.83;;;1.10;;
10880;SDS011;5493;48.884;8.338;2024-03-25T01:35:27;2.73;;;0.80;;
10880;SDS011;5493;48.884;8.338;2024-03-25T01:37:52;1.90;;;0.97;;
10880;SDS011;5493;48.884;8.338;2024-03-25T01:40:19;1.60;;;1.00;;
10880;SDS011;5493;48.884;8.338;2024-03-25T01:42:54;1.87;;;0.97;;
10880;SDS011;5493;48.884;8.338;2024-03-25T01:45:22;1.13;;;0.97;;
10880;SDS011;5493;48.884;8.338;2024-03-25T01:47:48;3.80;;;1.50;;
10880;SDS011;5493;48.884;8.338;2024-03-25T01:50:15;2.97;;;1.20;;
10880;SDS011;5493;48.884;8.338;2024-03-25T01:52:41;2.87;;;1.20;;
10880;SDS011;5493;48.884;8.338;2024-03-25T01:55:08;1.30;;;0.97;;
10880;SDS011;5493;48.884;8.338;2024-03-25T01:57:41;5.77;;;1.40;;
10880;SDS011;5493;48.884;8.338;2024-03-25T02:00:09;1.43;;;1.07;;
10880;SDS011;5493;48.884;8.338;2024-03-25T02:02:37;2.20;;;1.40;;
10880;SDS011;5493;48.884;8.338;2024-03-25T02:05:09;2.03;;;1.10;;
10880;SDS011;5493;48.884;8.338;2024-03-25T02:07:35;3.17;;;1.30;;
10880;SDS011;5493;48.884;8.338;2024-03-25T02:10:02;1.80;;;1.03;;
10880;SDS011;5493;48.884;8.338;2024-03-25T02:12:29;1.67;;;1.40;;
10880;SDS011;5493;48.884;8.338;2024-03-25T02:14:56;1.73;;;1.23;;
10880;SDS011;5493;48.884;8.338;2024-03-25T02:17:23;1.30;;;1.10;;
10880;SDS011;5493;48.884;8.338;2024-03-25T02:19:51;4.83;;;1.30;;
10880;SDS011;5493;48.884;8.338;2024-03-25T02:22:17;4.03;;;1.27;;
10880;SDS011;5493;48.884;8.338;2024-03-25T02:24:43;1.40;;;1.30;;
10880;SDS011;5493;48.884;8.338;2024-03-25T02:27:12;2.13;;;1.13;;
10880;SDS011;5493;48.884;8.338;2024-03-25T02:29:39;2.43;;;1.10;;
10880;SDS011;5493;48.884;8.338;2024-03-25T02:32:05;1.97;;;1.20;;
10880;SDS011;5493;48.884;8.338;2024-03-25T02:34:35;1.83;;;1.37;;
10880;SDS011;5493;48.884;8.338;2024-03-25T02:37:01;2.27;;;1.57;;
10880;SDS011;5493;48.884;8.338;2024-03-25T02:39:28;3.30;;;1.53;;
10880;SDS011;5493;48.884;8.338;2024-03-25T02:41:53;2.43;;;1.10;;
10880;SDS011;5493;48.884;8.338;2024-03-25T02:44:21;2.77;;;1.60;;
10880;SDS011;5493;48.884;8.338;2024-03-25T02:46:48;3.03;;;1.50;;
10880;SDS011;5493;48.884;8.338;2024-03-25T02:49:15;2.00;;;1.10;;
10880;SDS011;5493;48.884;8.338;2024-03-25T02:51:41;1.33;;;1.17;;
10880;SDS011;5493;48.884;8.338;2024-03-25T02:54:07;2.03;;;1.33;;
10880;SDS011;5493;48.884;8.338;2024-03-25T02:56:33;4.73;;;1.60;;
10880;SDS011;5493;48.884;8.338;2024-03-25T02:59:00;3.00;;;1.43;;
10880;SDS011;5493;48.884;8.338;2024-03-25T03:01:27;4.50;;;1.73;;
10880;SDS011;5493;48.884;8.338;2024-03-25T03:03:54;1.80;;;1.30;;
10880;SDS011;5493;48.884;8.338;2024-03-25T03:06:19;3.47;;;1.67;;
10880;SDS011;5493;48.884;8.338;2024-03-25T03:08:47;3.70;;;1.33;;
10880;SDS011;5493;48.884;8.338;2024-03-25T03:11:13;3.13;;;1.57;;
10880;SDS011;5493;48.884;8.338;2024-03-25T03:13:39;3.13;;;1.60;;
10880;SDS011;5493;48.884;8.338;2024-03-25T03:16:05;1.17;;;0.77;;
10880;SDS011;5493;48.884;8.338;2024-03-25T03:18:33;2.13;;;1.23;;
10880;SDS011;5493;48.884;8.338;2024-03-25T03:20:59;3.27;;;1.40;;
10880;SDS011;5493;48.884;8.338;2024-03-25T03:23:26;2.40;;;1.37;;
10880;SDS011;5493;48.884;8.338;2024-03-25T03:25:51;3.97;;;1.80;;
10880;SDS011;5493;48.884;8.338;2024-03-25T03:28:18;4.73;;;1.60;;
10880;SDS011;5493;48.884;8.338;2024-03-25T03:30:44;2.50;;;1.37;;
10880;SDS011;5493;48.884;8.338;2024-03-25T03:33:11;5.23;;;1.50;;
10880;SDS011;5493;48.884;8.338;2024-03-25T03:35:38;2.67;;;1.40;;
10880;SDS011;5493;48.884;8.338;2024-03-25T03:38:04;2.27;;;1.30;;
10880;SDS011;5493;48.884;8.338;2024-03-25T03:40:31;2.37;;;1.33;;
10880;SDS011;5493;48.884;8.338;2024-03-25T03:42:58;1.20;;;0.97;;
10880;SDS011;5493;48.884;8.338;2024-03-25T03:45:24;2.17;;;1.47;;
10880;SDS011;5493;48.884;8.338;2024-03-25T03:47:50;2.27;;;1.57;;
10880;SDS011;5493;48.884;8.338;2024-03-25T03:50:16;2.03;;;1.40;;
10880;SDS011;5493;48.884;8.338;2024-03-25T03:52:44;2.60;;;1.47;;
10880;SDS011;5493;48.884;8.338;2024-03-25T03:55:09;2.23;;;1.50;;
10880;SDS011;5493;48.884;8.338;2024-03-25T03:57:36;2.37;;;1.63;;
10880;SDS011;5493;48.884;8.338;2024-03-25T04:00:02;3.13;;;1.50;;
10880;SDS011;5493;48.884;8.338;2024-03-25T04:02:29;2.80;;;1.40;;
10880;SDS011;5493;48.884;8.338;2024-03-25T04:04:55;2.90;;;1.53;;
10880;SDS011;5493;48.884;8.338;2024-03-25T04:07:21;5.07;;;1.60;;
10880;SDS011;5493;48.884;8.338;2024-03-25T04:09:52;2.30;;;1.50;;
10880;SDS011;5493;48.884;8.338;2024-03-25T04:12:19;3.17;;;1.30;;
10880;SDS011;5493;48.884;8.338;2024-03-25T04:14:46;3.27;;;1.27;;
10880;SDS011;5493;48.884;8.338;2024-03-25T04:17:14;4.73;;;2.27;;
10880;SDS011;5493;48.884;8.338;2024-03-25T04:19:39;2.00;;;1.40;;
10880;SDS011;5493;48.884;8.338;2024-03-25T04:22:07;5.57;;;2.37;;
10880;SDS011;5493;48.884;8.338;2024-03-25T04:24:33;4.77;;;1.83;;
10880;SDS011;5493;48.884;8.338;2024-03-25T04:27:01;2.07;;;1.53;;
10880;SDS011;5493;48.884;8.338;2024-03-25T04:29:28;2.77;;;1.67;;
10880;SDS011;5493;48.884;8.338;2024-03-25T04:31:55;2.77;;;1.33;;
10880;SDS011;5493;48.884;8.338;2024-03-25T04:34:21;2.43;;;1.63;;
10880;SDS011;5493;48.884;8.338;2024-03-25T04:36:48;2.93;;;1.30;;
10880;SDS011;5493;48.884;8.338;2024-03-25T04:39:13;3.07;;;1.60;;
10880;SDS011;5493;48.884;8.338;2024-03-25T04:41:39;1.30;;;1.07;;
10880;SDS011;5493;48.884;8.338;2024-03-25T04:44:06;5.53;;;1.87;;
10880;SDS011;5493;48.884;8.338;2024-03-25T04:46:32;2.70;;;1.67;;
10880;SDS011;5493;48.884;8.338;2024-03-25T04:48:58;2.20;;;1.43;;
10880;SDS011;5493;48.884;8.338;2024-03-25T04:51:23;2.70;;;1.50;;
10880;SDS011;5493;48.884;8.338;2024-03-25T04:53:49;2.40;;;1.60;;
10880;SDS011;5493;48.884;8.338;2024-03-25T04:56:14;3.13;;;1.50;;
10880;SDS011;5493;48.884;8.338;2024-03-25T04:58:40;2.97;;;1.70;;
10880;SDS011;5493;48.884;8.338;2024-03-25T05:03:36;3.73;;;1.40;;
10880;SDS011;5493;48.884;8.338;2024-03-25T05:06:02;1.87;;;1.50;;
10880;SDS011;5493;48.884;8.338;2024-03-25T05:08:28;3.80;;;1.63;;
10880;SDS011;5493;48.884;8.338;2024-03-25T05:10:53;6.67;;;1.80;;
10880;SDS011;5493;48.884;8.338;2024-03-25T05:13:19;3.10;;;1.60;;
10880;SDS011;5493;48.884;8.338;2024-03-25T05:15:49;3.80;;;1.67;;
10880;SDS011;5493;48.884;8.338;2024-03-25T05:18:16;1.80;;;1.30;;
10880;SDS011;5493;48.884;8.338;2024-03-25T05:20:42;2.10;;;1.60;;
10880;SDS011;5493;48.884;8.338;2024-03-25T05:23:07;5.80;;;1.93;;
10880;SDS011;5493;48.884;8.338;2024-03-25T05:25:34;2.07;;;1.57;;
10880;SDS011;5493;48.884;8.338;2024-03-25T05:27:59;6.33;;;1.90;;
10880;SDS011;5493;48.884;8.338;2024-03-25T05:30:25;2.40;;;1.70;;
10880;SDS011;5493;48.884;8.338;2024-03-25T05:32:50;3.03;;;1.50;;
10880;SDS011;5493;48.884;8.338;2024-03-25T05:35:17;3.00;;;1.30;;
10880;SDS011;5493;48.884;8.338;2024-03-25T05:37:43;2.63;;;1.60;;
10880;SDS011;5493;48.884;8.338;2024-03-25T05:40:09;4.17;;;1.70;;
10880;SDS011;5493;48.884;8.338;2024-03-25T05:42:36;4.80;;;2.00;;
10880;SDS011;5493;48.884;8.338;2024-03-25T05:45:01;4.53;;;2.40;;
10880;SDS011;5493;48.884;8.338;2024-03-25T05:47:27;2.40;;;1.80;;
10880;SDS011;5493;48.884;8.338;2024-03-25T05:49:53;3.83;;;1.93;;
10880;SDS011;5493;48.884;8.338;2024-03-25T05:52:20;3.10;;;1.90;;
10880;SDS011;5493;48.884;8.338;2024-03-25T05:54:45;2.97;;;1.83;;
10880;SDS011;5493;48.884;8.338;2024-03-25T05:57:11;3.87;;;2.17;;
10880;SDS011;5493;48.884;8.338;2024-03-25T05:59:36;1.70;;;1.20;;
10880;SDS011;5493;48.884;8.338;2024-03-25T06:02:02;2.70;;;1.47;;
10880;SDS011;5493;48.884;8.338;2024-03-25T06:04:28;3.63;;;1.60;;
10880;SDS011;5493;48.884;8.338;2024-03-25T06:06:53;3.70;;;1.80;;
10880;SDS011;5493;48.884;8.338;2024-03-25T06:09:20;2.00;;;1.47;;
10880;SDS011;5493;48.884;8.338;2024-03-25T06:11:46;4.07;;;1.87;;
10880;SDS011;5493;48.884;8.338;2024-03-25T06:14:12;4.53;;;1.53;;
10880;SDS011;5493;48.884;8.338;2024-03-25T06:16:37;3.03;;;1.73;;
10880;SDS011;5493;48.884;8.338;2024-03-25T06:19:03;3.27;;;1.50;;
10880;SDS011;5493;48.884;8.338;2024-03-25T06:21:28;4.37;;;1.90;;
10880;SDS011;5493;48.884;8.338;2024-03-25T06:23:54;5.40;;;1.80;;
10880;SDS011;5493;48.884;8.338;2024-03-25T06:26:21;3.87;;;2.13;;
10880;SDS011;5493;48.884;8.338;2024-03-25T06:28:47;3.27;;;2.00;;
10880;SDS011;5493;48.884;8.338;2024-03-25T06:31:13;3.00;;;1.73;;
10880;SDS011;5493;48.884;8.338;2024-03-25T06:33:57;3.90;;;1.77;;
10880;SDS011;5493;48.884;8.338;2024-03-25T06:36:40;2.87;;;1.63;;
10880;SDS011;5493;48.884;8.338;2024-03-25T06:39:06;2.63;;;1.77;;
10880;SDS011;5493;48.884;8.338;2024-03-25T06:41:33;3.30;;;1.90;;
10880;SDS011;5493;48.884;8.338;2024-03-25T06:43:58;3.20;;;1.73;;
10880;SDS011;5493;48.884;8.338;2024-03-25T06:46:24;4.90;;;1.50;;
10880;SDS011;5493;48.884;8.338;2024-03-25T06:48:49;2.87;;;1.70;;
10880;SDS011;5493;48.884;8.338;2024-03-25T06:51:15;4.67;;;1.67;;
10880;SDS011;5493;48.884;8.338;2024-03-25T06:53:41;3.20;;;1.70;;
10880;SDS011;5493;48.884;8.338;2024-03-25T06:56:06;5.33;;;1.77;;
10880;SDS011;5493;48.884;8.338;2024-03-25T06:58:33;3.23;;;1.60;;
10880;SDS011;5493;48.884;8.338;2024-03-25T07:01:03;4.20;;;1.83;;
10880;SDS011;5493;48.884;8.338;2024-03-25T07:03:30;2.87;;;1.50;;
10880;SDS011;5493;48.884;8.338;2024-03-25T07:05:55;4.40;;;1.90;;
10880;SDS011;5493;48.884;8.338;2024-03-25T07:08:21;2.37;;;1.33;;
10880;SDS011;5493;48.884;8.338;2024-03-25T07:10:46;2.93;;;1.10;;
10880;SDS011;5493;48.884;8.338;2024-03-25T07:13:12;3.33;;;1.87;;
10880;SDS011;5493;48.884;8.338;2024-03-25T07:15:39;2.57;;;1.63;;
10880;SDS011;5493;48.884;8.338;2024-03-25T07:18:05;6.43;;;1.80;;
10880;SDS011;5493;48.884;8.338;2024-03-25T07:20:31;5.97;;;1.60;;
10880;SDS011;5493;48.884;8.338;2024-03-25T07:22:57;2.73;;;1.50;;
10880;SDS011;5493;48.884;8.338;2024-03-25T07:25:22;5.23;;;2.00;;
10880;SDS011;5493;48.884;8.338;2024-03-25T07:27:48;3.87;;;1.77;;
10880;SDS011;5493;48.884;8.338;2024-03-25T07:30:14;2.13;;;1.70;;
10880;SDS011;5493;48.884;8.338;2024-03-25T07:32:41;4.63;;;2.17;;
10880;SDS011;5493;48.884;8.338;2024-03-25T07:35:07;3.73;;;1.93;;
10880;SDS011;5493;48.884;8.338;2024-03-25T07:37:32;3.73;;;1.90;;
10880;SDS011;5493;48.884;8.338;2024-03-25T07:39:58;4.40;;;1.90;;
10880;SDS011;5493;48.884;8.338;2024-03-25T07:42:24;6.27;;;1.50;;
10880;SDS011;5493;48.884;8.338;2024-03-25T07:44:49;6.57;;;1.90;;
10880;SDS011;5493;48.884;8.338;2024-03-25T07:47:15;2.63;;;1.67;;
10880;SDS011;5493;48.884;8.338;2024-03-25T07:49:42;4.13;;;1.63;;
10880;SDS011;5493;48.884;8.338;2024-03-25T07:52:07;3.17;;;1.90;;
10880;SDS011;5493;48.884;8.338;2024-03-25T07:54:33;4.70;;;1.80;;
10880;SDS011;5493;48.884;8.338;2024-03-25T07:56:58;4.10;;;2.17;;
10880;SDS011;5493;48.884;8.338;2024-03-25T07:59:24;4.50;;;1.90;;
10880;SDS011;5493;48.884;8.338;2024-03-25T08:01:50;3.37;;;1.90;;
10880;SDS011;5493;48.884;8.338;2024-03-25T08:04:15;2.10;;;1.70;;
10880;SDS011;5493;48.884;8.338;2024-03-25T08:06:42;3.23;;;2.20;;
10880;SDS011;5493;48.884;8.338;2024-03-25T08:09:08;3.07;;;2.20;;
10880;SDS011;5493;48.884;8.338;2024-03-25T08:11:34;2.33;;;1.80;;
10880;SDS011;5493;48.884;8.338;2024-03-25T08:14:00;3.17;;;1.97;;
10880;SDS011;5493;48.884;8.338;2024-03-25T08:16:26;3.97;;;1.80;;
10880;SDS011;5493;48.884;8.338;2024-03-25T08:18:51;2.33;;;1.30;;
10880;SDS011;5493;48.884;8.338;2024-03-25T08:21:17;2.70;;;1.60;;
10880;SDS011;5493;48.884;8.338;2024-03-25T08:23:45;4.13;;;2.13;;
10880;SDS011;5493;48.884;8.338;2024-03-25T08:26:11;5.10;;;2.10;;
10880;SDS011;5493;48.884;8.338;2024-03-25T08:28:37;6.60;;;2.00;;
10880;SDS011;5493;48.884;8.338;2024-03-25T08:31:03;7.93;;;2.03;;
10880;SDS011;5493;48.884;8.338;2024-03-25T08:33:28;5.60;;;2.13;;
10880;SDS011;5493;48.884;8.338;2024-03-25T08:35:54;3.47;;;1.80;;
10880;SDS011;5493;48.884;8.338;2024-03-25T08:38:19;3.27;;;1.57;;
10880;SDS011;5493;48.884;8.338;2024-03-25T08:40:46;2.40;;;1.53;;
10880;SDS011;5493;48.884;8.338;2024-03-25T08:43:12;3.17;;;1.57;;
10880;SDS011;5493;48.884;8.338;2024-03-25T08:45:38;3.83;;;1.70;;
10880;SDS011;5493;48.884;8.338;2024-03-25T08:48:04;3.27;;;1.77;;
10880;SDS011;5493;48.884;8.338;2024-03-25T08:50:30;2.40;;;1.70;;
10880;SDS011;5493;48.884;8.338;2024-03-25T08:52:55;2.60;;;1.53;;
10880;SDS011;5493;48.884;8.338;2024-03-25T08:55:21;3.97;;;1.93;;
10880;SDS011;5493;48.884;8.338;2024-03-25T08:57:48;3.80;;;2.03;;
10880;SDS011;5493;48.884;8.338;2024-03-25T09:00:14;3.73;;;2.30;;
10880;SDS011;5493;48.884;8.338;2024-03-25T09:02:40;2.90;;;1.50;;
10880;SDS011;5493;48.884;8.338;2024-03-25T09:05:06;4.93;;;1.80;;
10880;SDS011;5493;48.884;8.338;2024-03-25T09:07:32;2.67;;;1.73;;
10880;SDS011;5493;48.884;8.338;2024-03-25T09:09:58;4.70;;;1.93;;
10880;SDS011;5493;48.884;8.338;2024-03-25T09:12:42;2.93;;;1.70;;
10880;SDS011;5493;48.884;8.338;2024-03-25T09:15:09;3.10;;;1.87;;
10880;SDS011;5493;48.884;8.338;2024-03-25T09:17:34;4.90;;;2.00;;
10880;SDS011;5493;48.884;8.338;2024-03-25T09:20:00;4.90;;;1.97;;
10880;SDS011;5493;48.884;8.338;2024-03-25T09:22:26;2.90;;;1.90;;
10880;SDS011;5493;48.884;8.338;2024-03-25T09:24:52;4.43;;;1.70;;
10880;SDS011;5493;48.884;8.338;2024-03-25T09:27:18;3.77;;;1.73;;
10880;SDS011;5493;48.884;8.338;2024-03-25T09:29:43;4.57;;;1.90;;
10880;SDS011;5493;48.884;8.338;2024-03-25T09:32:10;2.80;;;1.50;;
10880;SDS011;5493;48.884;8.338;2024-03-25T09:34:36;2.33;;;1.77;;
10880;SDS011;5493;48.884;8.338;2024-03-25T09:37:01;2.40;;;1.53;;
10880;SDS011;5493;48.884;8.338;2024-03-25T09:39:27;4.20;;;1.77;;
10880;SDS011;5493;48.884;8.338;2024-03-25T09:41:55;4.13;;;1.80;;
10880;SDS011;5493;48.884;8.338;2024-03-25T09:44:21;4.90;;;1.47;;
10880;SDS011;5493;48.884;8.338;2024-03-25T09:46:49;2.73;;;1.67;;
10880;SDS011;5493;48.884;8.338;2024-03-25T09:49:16;3.27;;;1.53;;
10880;SDS011;5493;48.884;8.338;2024-03-25T09:51:42;2.87;;;1.70;;
10880;SDS011;5493;48.884;8.338;2024-03-25T09:54:08;6.67;;;2.03;;
10880;SDS011;5493;48.884;8.338;2024-03-25T09:56:33;3.72;;;1.55;;
10880;SDS011;5493;48.884;8.338;2024-03-25T09:59:00;5.03;;;2.37;;
10880;SDS011;5493;48.884;8.338;2024-03-25T10:01:27;6.47;;;2.10;;
10880;SDS011;5493;48.884;8.338;2024-03-25T10:03:52;2.30;;;1.80;;
10880;SDS011;5493;48.884;8.338;2024-03-25T10:06:20;2.70;;;1.50;;
10880;SDS011;5493;48.884;8.338;2024-03-25T10:08:45;2.47;;;1.50;;
10880;SDS011;5493;48.884;8.338;2024-03-25T10:11:11;6.13;;;1.80;;
10880;SDS011;5493;48.884;8.338;2024-03-25T10:13:36;5.23;;;2.07;;
10880;SDS011;5493;48.884;8.338;2024-03-25T10:16:02;1.97;;;1.60;;
10880;SDS011;5493;48.884;8.338;2024-03-25T10:18:28;4.57;;;1.23;;
10880;SDS011;5493;48.884;8.338;2024-03-25T10:20:54;3.80;;;1.33;;
10880;SDS011;5493;48.884;8.338;2024-03-25T10:23:21;1.43;;;1.30;;
10880;SDS011;5493;48.884;8.338;2024-03-25T10:25:48;2.53;;;1.50;;
10880;SDS011;5493;48.884;8.338;2024-03-25T10:28:14;2.20;;;1.30;;
10880;SDS011;5493;48.884;8.338;2024-03-25T10:30:40;3.03;;;1.60;;
10880;SDS011;5493;48.884;8.338;2024-03-25T10:33:06;2.63;;;1.43;;
10880;SDS011;5493;48.884;8.338;2024-03-25T10:35:33;2.70;;;1.47;;
10880;SDS011;5493;48.884;8.338;2024-03-25T10:38:00;1.27;;;1.10;;
10880;SDS011;5493;48.884;8.338;2024-03-25T10:40:28;3.00;;;1.20;;
10880;SDS011;5493;48.884;8.338;2024-03-25T10:42:56;2.03;;;1.13;;
10880;SDS011;5493;48.884;8.338;2024-03-25T10:45:26;2.83;;;1.20;;
10880;SDS011;5493;48.884;8.338;2024-03-25T10:47:54;3.00;;;0.70;;
10880;SDS011;5493;48.884;8.338;2024-03-25T10:50:23;2.00;;;0.75;;
10880;SDS011;5493;48.884;8.338;2024-03-25T10:52:53;1.17;;;0.68;;
10880;SDS011;5493;48.884;8.338;2024-03-25T10:55:19;1.45;;;0.88;;
10880;SDS011;5493;48.884;8.338;2024-03-25T10:57:47;1.55;;;0.80;;
10880;SDS011;5493;48.884;8.338;2024-03-25T11:00:14;1.75;;;1.02;;
10880;SDS011;5493;48.884;8.338;2024-03-25T11:02:40;2.33;;;1.00;;
10880;SDS011;5493;48.884;8.338;2024-03-25T11:05:06;2.20;;;1.00;;
10880;SDS011;5493;48.884;8.338;2024-03-25T11:07:33;3.70;;;0.77;;
10880;SDS011;5493;48.884;8.338;2024-03-25T11:10:02;2.72;;;1.00;;
10880;SDS011;5493;48.884;8.338;2024-03-25T11:12:31;2.10;;;0.90;;
10880;SDS011;5493;48.884;8.338;2024-03-25T11:15:00;2.08;;;0.40;;
10880;SDS011;5493;48.884;8.338;2024-03-25T11:17:26;4.57;;;1.10;;
10880;SDS011;5493;48.884;8.338;2024-03-25T11:19:52;1.70;;;0.80;;
10880;SDS011;5493;48.884;8.338;2024-03-25T11:22:23;2.35;;;1.42;;
10880;SDS011;5493;48.884;8.338;2024-03-25T11:24:50;2.88;;;1.70;;
10880;SDS011;5493;48.884;8.338;2024-03-25T11:27:20;2.05;;;1.13;;
10880;SDS011;5493;48.884;8.338;2024-03-25T11:29:47;2.90;;;1.15;;
10880;SDS011;5493;48.884;8.338;2024-03-25T11:32:14;3.22;;;1.25;;
10880;SDS011;5493;48.884;8.338;2024-03-25T11:34:49;1.92;;;1.00;;
10880;SDS011;5493;48.884;8.338;2024-03-25T11:37:15;2.03;;;0.80;;
10880;SDS011;5493;48.884;8.338;2024-03-25T11:39:40;3.95;;;1.08;;
10880;SDS011;5493;48.884;8.338;2024-03-25T11:42:07;3.75;;;1.02;;
10880;SDS011;5493;48.884;8.338;2024-03-25T11:44:35;1.88;;;1.10;;
10880;SDS011;5493;48.884;8.338;2024-03-25T11:47:02;2.92;;;1.05;;
10880;SDS011;5493;48.884;8.338;2024-03-25T11:49:29;1.65;;;0.93;;
10880;SDS011;5493;48.884;8.338;2024-03-25T11:51:54;2.97;;;1.20;;
10880;SDS011;5493;48.884;8.338;2024-03-25T11:54:20;3.28;;;1.20;;
10880;SDS011;5493;48.884;8.338;2024-03-25T11:56:45;1.55;;;1.08;;
10880;SDS011;5493;48.884;8.338;2024-03-25T11:59:12;3.08;;;1.35;;
10880;SDS011;5493;48.884;8.338;2024-03-25T12:01:38;3.45;;;1.33;;
10880;SDS011;5493;48.884;8.338;2024-03-25T12:04:09;1.90;;;1.10;;
10880;SDS011;5493;48.884;8.338;2024-03-25T12:06:36;1.40;;;0.73;;
10880;SDS011;5493;48.884;8.338;2024-03-25T12:09:02;3.10;;;1.00;;
10880;SDS011;5493;48.884;8.338;2024-03-25T12:11:46;1.40;;;0.90;;
10880;SDS011;5493;48.884;8.338;2024-03-25T12:14:12;1.83;;;1.20;;
10880;SDS011;5493;48.884;8.338;2024-03-25T12:16:40;2.20;;;1.17;;
10880;SDS011;5493;48.884;8.338;2024-03-25T12:19:06;1.20;;;0.57;;
10880;SDS011;5493;48.884;8.338;2024-03-25T12:21:31;2.65;;;1.00;;
10880;SDS011;5493;48.884;8.338;2024-03-25T12:23:59;2.90;;;0.85;;
10880;SDS011;5493;48.884;8.338;2024-03-25T12:26:24;1.23;;;0.65;;
10880;SDS011;5493;48.884;8.338;2024-03-25T12:28:50;1.90;;;1.00;;
10880;SDS011;5493;48.884;8.338;2024-03-25T12:31:16;2.40;;;1.02;;
10880;SDS011;5493;48.884;8.338;2024-03-25T12:33:42;1.65;;;1.08;;
10880;SDS011;5493;48.884;8.338;2024-03-25T12:36:11;1.80;;;0.70;;
10880;SDS011;5493;48.884;8.338;2024-03-25T12:38:37;1.63;;;0.88;;
10880;SDS011;5493;48.884;8.338;2024-03-25T12:41:05;1.27;;;0.80;;
10880;SDS011;5493;48.884;8.338;2024-03-25T12:43:31;1.42;;;0.73;;
10880;SDS011;5493;48.884;8.338;2024-03-25T12:45:57;1.20;;;0.80;;
10880;SDS011;5493;48.884;8.338;2024-03-25T12:48:23;2.15;;;0.80;;
10880;SDS011;5493;48.884;8.338;2024-03-25T12:50:49;1.67;;;0.73;;
10880;SDS011;5493;48.884;8.338;2024-03-25T12:53:16;2.13;;;0.88;;
10880;SDS011;5493;48.884;8.338;2024-03-25T12:55:43;3.45;;;1.02;;
10880;SDS011;5493;48.884;8.338;2024-03-25T12:58:10;2.30;;;0.95;;
10880;SDS011;5493;48.884;8.338;2024-03-25T13:00:35;1.20;;;0.70;;
10880;SDS011;5493;48.884;8.338;2024-03-25T13:03:01;3.28;;;0.77;;
10880;SDS011;5493;48.884;8.338;2024-03-25T13:05:27;2.70;;;1.02;;
10880;SDS011;5493;48.884;8.338;2024-03-25T13:07:53;2.75;;;0.88;;
10880;SDS011;5493;48.884;8.338;2024-03-25T13:10:19;1.67;;;1.08;;
10880;SDS011;5493;48.884;8.338;2024-03-25T13:12:44;1.08;;;0.75;;
10880;SDS011;5493;48.884;8.338;2024-03-25T13:15:11;1.20;;;0.77;;
10880;SDS011;5493;48.884;8.338;2024-03-25T13:17:37;1.23;;;0.60;;
10880;SDS011;5493;48.884;8.338;2024-03-25T13:20:03;1.58;;;0.93;;
10880;SDS011;5493;48.884;8.338;2024-03-25T13:22:29;1.13;;;0.80;;
10880;SDS011;5493;48.884;8.338;2024-03-25T13:24:54;1.33;;;0.85;;
10880;SDS011;5493;48.884;8.338;2024-03-25T13:27:20;1.77;;;0.90;;
10880;SDS011;5493;48.884;8.338;2024-03-25T13:29:46;2.45;;;0.90;;
10880;SDS011;5493;48.884;8.338;2024-03-25T13:32:12;1.92;;;1.15;;
10880;SDS011;5493;48.884;8.338;2024-03-25T13:34:38;2.75;;;1.00;;
10880;SDS011;5493;48.884;8.338;2024-03-25T13:37:04;0.88;;;0.68;;
10880;SDS011;5493;48.884;8.338;2024-03-25T13:39:29;1.63;;;0.98;;
10880;SDS011;5493;48.884;8.338;2024-03-25T13:41:55;1.60;;;0.98;;
10880;SDS011;5493;48.884;8.338;2024-03-25T13:44:21;1.85;;;0.90;;
10880;SDS011;5493;48.884;8.338;2024-03-25T13:46:46;2.47;;;0.90;;
10880;SDS011;5493;48.884;8.338;2024-03-25T13:49:13;2.38;;;1.38;;
10880;SDS011;5493;48.884;8.338;2024-03-25T13:51:39;1.58;;;0.80;;
10880;SDS011;5493;48.884;8.338;2024-03-25T13:54:04;2.30;;;0.80;;
10880;SDS011;5493;48.884;8.338;2024-03-25T13:56:30;1.85;;;1.10;;
10880;SDS011;5493;48.884;8.338;2024-03-25T13:58:55;3.15;;;1.40;;
10880;SDS011;5493;48.884;8.338;2024-03-25T14:01:21;2.67;;;0.88;;
10880;SDS011;5493;48.884;8.338;2024-03-25T14:03:47;1.90;;;1.10;;
10880;SDS011;5493;48.884;8.338;2024-03-25T14:06:14;1.10;;;1.00;;
10880;SDS011;5493;48.884;8.338;2024-03-25T14:08:39;1.58;;;0.98;;
10880;SDS011;5493;48.884;8.338;2024-03-25T14:11:05;2.35;;;0.98;;
10880;SDS011;5493;48.884;8.338;2024-03-25T14:13:30;4.10;;;1.98;;
10880;SDS011;5493;48.884;8.338;2024-03-25T14:15:56;3.10;;;1.38;;
10880;SDS011;5493;48.884;8.338;2024-03-25T14:18:21;1.95;;;1.17;;
10880;SDS011;5493;48.884;8.338;2024-03-25T14:20:47;1.85;;;1.00;;
10880;SDS011;5493;48.884;8.338;2024-03-25T14:23:14;1.73;;;1.00;;
10880;SDS011;5493;48.884;8.338;2024-03-25T14:25:40;1.48;;;0.95;;
10880;SDS011;5493;48.884;8.338;2024-03-25T14:28:06;2.63;;;1.20;;
10880;SDS011;5493;48.884;8.338;2024-03-25T14:30:31;1.88;;;0.80;;
10880;SDS011;5493;48.884;8.338;2024-03-25T14:32:57;2.10;;;1.00;;
10880;SDS011;5493;48.884;8.338;2024-03-25T14:35:22;1.52;;;0.85;;
10880;SDS011;5493;48.884;8.338;2024-03-25T14:37:48;1.60;;;0.90;;
10880;SDS011;5493;48.884;8.338;2024-03-25T14:40:15;2.08;;;1.13;;
10880;SDS011;5493;48.884;8.338;2024-03-25T14:42:41;1.20;;;0.88;;
10880;SDS011;5493;48.884;8.338;2024-03-25T14:45:06;1.92;;;1.33;;
10880;SDS011;5493;48.884;8.338;2024-03-25T14:47:32;1.25;;;0.90;;
10880;SDS011;5493;48.884;8.338;2024-03-25T14:49:58;2.85;;;1.40;;
10880;SDS011;5493;48.884;8.338;2024-03-25T14:52:24;3.30;;;0.95;;
10880;SDS011;5493;48.884;8.338;2024-03-25T14:54:50;2.65;;;1.10;;
10880;SDS011;5493;48.884;8.338;2024-03-25T14:57:17;2.92;;;1.10;;